sensor_id;sensor_type;location;lat;lon;timestamp;pressure;altitude;pressure_sealevel;temperature;humidity
46007;BME280;31738;50.188;8.524;2023-05-27T00:01:01;99949.63;;;14.84;50.22
46007;BME280;31738;50.188;8.524;2023-05-27T00:03:26;99941.50;;;14.84;50.06
46007;BME280;31738;50.188;8.524;2023-05-27T00:05:52;99948.56;;;14.80;50.40
46007;BME280;31738;50.188;8.524;2023-05-27T00:08:17;99950.72;;;14.78;50.67
46007;BME280;31738;50.188;8.524;2023-05-27T00:10:43;99949.34;;;14.81;50.48
46007;BME280;31738;50.188;8.524;2023-05-27T00:13:09;99943.16;;;14.80;50.27
46007;BME280;31738;50.188;8.524;2023-05-27T00:15:34;99942.06;;;14.76;50.51
46007;BME280;31738;50.188;8.524;2023-05-27T00:18:00;99938.84;;;14.74;50.91
46007;BME280;31738;50.188;8.524;2023-05-27T00:20:27;99930.19;;;14.72;50.74
46007;BME280;31738;50.188;8.524;2023-05-27T00:22:55;99932.06;;;14.72;51.44
46007;BME280;31738;50.188;8.524;2023-05-27T00:25:22;99931.78;;;14.73;51.26
46007;BME280;31738;50.188;8.524;2023-05-27T00:27:48;99937.72;;;14.70;51.24
46007;BME280;31738;50.188;8.524;2023-05-27T00:30:15;99929.66;;;14.65;50.70
46007;BME280;31738;50.188;8.524;2023-05-27T00:32:41;99927.47;;;14.67;51.30
46007;BME280;31738;50.188;8.524;2023-05-27T00:35:07;99926.13;;;14.60;51.02
46007;BME280;31738;50.188;8.524;2023-05-27T00:37:33;99930.19;;;14.62;50.78
46007;BME280;31738;50.188;8.524;2023-05-27T00:39:58;99924.78;;;14.57;50.98
46007;BME280;31738;50.188;8.524;2023-05-27T00:42:24;99925.06;;;14.61;50.82
46007;BME280;31738;50.188;8.524;2023-05-27T00:44:49;99931.25;;;14.61;50.77
46007;BME280;31738;50.188;8.524;2023-05-27T00:47:15;99923.16;;;14.61;50.68
46007;BME280;31738;50.188;8.524;2023-05-27T00:49:44;99927.50;;;14.62;50.66
46007;BME280;31738;50.188;8.524;2023-05-27T00:52:10;99923.97;;;14.57;50.55
46007;BME280;31738;50.188;8.524;2023-05-27T00:54:36;99924.25;;;14.55;50.68
46007;BME280;31738;50.188;8.524;2023-05-27T00:57:02;99928.81;;;14.55;50.68
46007;BME280;31738;50.188;8.524;2023-05-27T00:59:27;99925.84;;;14.56;50.72
46007;BME280;31738;50.188;8.524;2023-05-27T01:01:53;99925.34;;;14.54;50.91
46007;BME280;31738;50.188;8.524;2023-05-27T01:04:19;99928.56;;;14.51;50.99
46007;BME280;31738;50.188;8.524;2023-05-27T01:09:49;99925.59;;;14.48;50.59
46007;BME280;31738;50.188;8.524;2023-05-27T01:12:35;99925.84;;;14.46;50.78
46007;BME280;31738;50.188;8.524;2023-05-27T01:15:04;99918.81;;;14.35;51.04
46007;BME280;31738;50.188;8.524;2023-05-27T01:17:32;99923.69;;;14.38;50.98
46007;BME280;31738;50.188;8.524;2023-05-27T01:20:03;99918.03;;;14.40;50.59
46007;BME280;31738;50.188;8.524;2023-05-27T01:22:35;99919.94;;;14.39;50.70
46007;BME280;31738;50.188;8.524;2023-05-27T01:25:02;99913.16;;;14.37;50.72
46007;BME280;31738;50.188;8.524;2023-05-27T01:27:28;99910.75;;;14.40;50.62
46007;BME280;31738;50.188;8.524;2023-05-27T01:29:54;99909.66;;;14.36;51.03
46007;BME280;31738;50.188;8.524;2023-05-27T01:32:30;99908.03;;;14.40;50.78
46007;BME280;31738;50.188;8.524;2023-05-27T01:35:07;99892.66;;;14.36;50.68
46007;BME280;31738;50.188;8.524;2023-05-27T01:37:40;99900.72;;;14.31;50.75
46007;BME280;31738;50.188;8.524;2023-05-27T01:40:08;99905.31;;;14.30;50.69
46007;BME280;31738;50.188;8.524;2023-05-27T01:42:39;99900.19;;;14.34;51.84
46007;BME280;31738;50.188;8.524;2023-05-27T01:45:06;99911.00;;;14.34;51.03
46007;BME280;31738;50.188;8.524;2023-05-27T01:47:33;99910.22;;;14.33;50.87
46007;BME280;31738;50.188;8.524;2023-05-27T01:49:58;99913.41;;;14.30;50.88
46007;BME280;31738;50.188;8.524;2023-05-27T01:52:24;99912.34;;;14.31;50.82
46007;BME280;31738;50.188;8.524;2023-05-27T01:54:50;99902.09;;;14.33;50.79
46007;BME280;31738;50.188;8.524;2023-05-27T01:57:16;99901.28;;;14.33;50.58
46007;BME280;31738;50.188;8.524;2023-05-27T01:59:42;99902.63;;;14.30;50.71
46007;BME280;31738;50.188;8.524;2023-05-27T02:02:07;99899.91;;;14.30;50.57
46007;BME280;31738;50.188;8.524;2023-05-27T02:04:33;99891.84;;;14.25;50.63
46007;BME280;31738;50.188;8.524;2023-05-27T02:06:59;99899.34;;;14.23;50.61
46007;BME280;31738;50.188;8.524;2023-05-27T02:09:24;99897.75;;;14.22;50.46
46007;BME280;31738;50.188;8.524;2023-05-27T02:11:52;99893.66;;;14.20;50.61
46007;BME280;31738;50.188;8.524;2023-05-27T02:14:17;99895.03;;;14.17;50.41
46007;BME280;31738;50.188;8.524;2023-05-27T02:16:43;99887.75;;;14.13;50.80
46007;BME280;31738;50.188;8.524;2023-05-27T02:19:09;99891.53;;;14.12;50.79
46007;BME280;31738;50.188;8.524;2023-05-27T02:21:35;99891.78;;;14.10;50.95
46007;BME280;31738;50.188;8.524;2023-05-27T02:24:03;99895.03;;;14.07;50.75
46007;BME280;31738;50.188;8.524;2023-05-27T02:26:29;99898.78;;;14.06;50.96
46007;BME280;31738;50.188;8.524;2023-05-27T02:28:55;99888.00;;;14.06;50.84
46007;BME280;31738;50.188;8.524;2023-05-27T02:31:21;99885.56;;;14.05;50.81
46007;BME280;31738;50.188;8.524;2023-05-27T02:33:47;99879.88;;;14.01;50.95
46007;BME280;31738;50.188;8.524;2023-05-27T02:36:12;99879.88;;;14.01;51.01
46007;BME280;31738;50.188;8.524;2023-05-27T02:38:38;99877.44;;;14.00;51.87
46007;BME280;31738;50.188;8.524;2023-05-27T02:41:04;99879.63;;;13.98;51.59
46007;BME280;31738;50.188;8.524;2023-05-27T02:43:29;99869.63;;;13.93;51.54
46007;BME280;31738;50.188;8.524;2023-05-27T02:45:55;99876.66;;;13.94;51.44
46007;BME280;31738;50.188;8.524;2023-05-27T02:48:20;99873.94;;;13.94;51.49
46007;BME280;31738;50.188;8.524;2023-05-27T02:50:46;99866.94;;;13.93;51.73
46007;BME280;31738;50.188;8.524;2023-05-27T02:53:11;99860.47;;;13.94;51.95
46007;BME280;31738;50.188;8.524;2023-05-27T02:55:37;99864.25;;;13.93;52.02
46007;BME280;31738;50.188;8.524;2023-05-27T02:58:03;99853.44;;;13.88;51.94
46007;BME280;31738;50.188;8.524;2023-05-27T03:00:33;99848.56;;;13.85;52.09
46007;BME280;31738;50.188;8.524;2023-05-27T03:02:58;99857.19;;;13.82;51.68
46007;BME280;31738;50.188;8.524;2023-05-27T03:05:24;99858.28;;;13.81;52.22
46007;BME280;31738;50.188;8.524;2023-05-27T03:07:49;99851.25;;;13.80;52.14
46007;BME280;31738;50.188;8.524;2023-05-27T03:10:15;99838.31;;;13.77;52.24
46007;BME280;31738;50.188;8.524;2023-05-27T03:12:41;99840.97;;;13.72;52.31
46007;BME280;31738;50.188;8.524;2023-05-27T03:15:06;99843.69;;;13.72;52.39
46007;BME280;31738;50.188;8.524;2023-05-27T03:17:36;99840.47;;;13.70;52.35
46007;BME280;31738;50.188;8.524;2023-05-27T03:20:03;99838.81;;;13.69;52.58
46007;BME280;31738;50.188;8.524;2023-05-27T03:22:31;99844.22;;;13.69;52.45
46007;BME280;31738;50.188;8.524;2023-05-27T03:24:56;99845.56;;;13.66;52.58
46007;BME280;31738;50.188;8.524;2023-05-27T03:27:22;99848.81;;;13.68;52.98
46007;BME280;31738;50.188;8.524;2023-05-27T03:29:48;99846.38;;;13.67;52.89
46007;BME280;31738;50.188;8.524;2023-05-27T03:32:13;99845.28;;;13.63;52.59
46007;BME280;31738;50.188;8.524;2023-05-27T03:34:41;99836.13;;;13.64;52.43
46007;BME280;31738;50.188;8.524;2023-05-27T03:37:06;99837.97;;;13.58;52.86
46007;BME280;31738;50.188;8.524;2023-05-27T03:39:47;99836.09;;;13.54;53.16
46007;BME280;31738;50.188;8.524;2023-05-27T03:42:12;99831.81;;;13.58;52.99
46007;BME280;31738;50.188;8.524;2023-05-27T03:44:38;99828.56;;;13.56;52.53
46007;BME280;31738;50.188;8.524;2023-05-27T03:47:04;99830.16;;;13.57;53.00
46007;BME280;31738;50.188;8.524;2023-05-27T03:49:31;99832.88;;;13.57;52.54
46007;BME280;31738;50.188;8.524;2023-05-27T03:51:57;99829.91;;;13.53;52.85
46007;BME280;31738;50.188;8.524;2023-05-27T03:54:23;99828.56;;;13.56;53.17
46007;BME280;31738;50.188;8.524;2023-05-27T03:56:49;99831.81;;;13.58;53.09
46007;BME280;31738;50.188;8.524;2023-05-27T03:59:16;99824.78;;;13.57;53.58
46007;BME280;31738;50.188;8.524;2023-05-27T04:01:46;99825.06;;;13.60;53.15
46007;BME280;31738;50.188;8.524;2023-05-27T04:04:13;99825.06;;;13.60;53.36
46007;BME280;31738;50.188;8.524;2023-05-27T04:06:38;99828.03;;;13.59;53.23
46007;BME280;31738;50.188;8.524;2023-05-27T04:09:04;99830.44;;;13.60;53.26
46007;BME280;31738;50.188;8.524;2023-05-27T04:11:33;99824.78;;;13.62;52.93
46007;BME280;31738;50.188;8.524;2023-05-27T04:14:00;99828.56;;;13.61;53.10
46007;BME280;31738;50.188;8.524;2023-05-27T04:16:26;99834.50;;;13.63;53.16
46007;BME280;31738;50.188;8.524;2023-05-27T04:18:52;99828.56;;;13.61;53.20
46007;BME280;31738;50.188;8.524;2023-05-27T04:21:18;99817.78;;;13.61;53.61
46007;BME280;31738;50.188;8.524;2023-05-27T04:23:43;99825.88;;;13.61;53.07
46007;BME280;31738;50.188;8.524;2023-05-27T04:26:10;99829.09;;;13.63;53.08
46007;BME280;31738;50.188;8.524;2023-05-27T04:28:38;99822.13;;;13.67;53.28
46007;BME280;31738;50.188;8.524;2023-05-27T04:31:05;99825.59;;;13.67;53.34
46007;BME280;31738;50.188;8.524;2023-05-27T04:33:38;99828.03;;;13.69;53.44
46007;BME280;31738;50.188;8.524;2023-05-27T04:36:06;99830.47;;;13.70;53.40
46007;BME280;31738;50.188;8.524;2023-05-27T04:38:40;99826.41;;;13.68;53.56
46007;BME280;31738;50.188;8.524;2023-05-27T04:41:06;99825.88;;;13.71;53.56
46007;BME280;31738;50.188;8.524;2023-05-27T04:43:59;99826.72;;;13.71;53.46
46007;BME280;31738;50.188;8.524;2023-05-27T04:46:29;99820.78;;;13.74;53.55
46007;BME280;31738;50.188;8.524;2023-05-27T04:48:54;99824.81;;;13.77;53.67
46007;BME280;31738;50.188;8.524;2023-05-27T04:51:21;99824.56;;;13.78;53.45
46007;BME280;31738;50.188;8.524;2023-05-27T04:53:48;99827.53;;;13.82;53.56
46007;BME280;31738;50.188;8.524;2023-05-27T04:56:14;99821.34;;;13.87;53.71
46007;BME280;31738;50.188;8.524;2023-05-27T04:58:43;99829.72;;;13.90;53.25
46007;BME280;31738;50.188;8.524;2023-05-27T05:01:12;99831.31;;;13.91;53.25
46007;BME280;31738;50.188;8.524;2023-05-27T05:03:46;99825.38;;;13.94;52.88
46007;BME280;31738;50.188;8.524;2023-05-27T05:06:28;99818.38;;;13.98;53.38
46007;BME280;31738;50.188;8.524;2023-05-27T05:08:53;99831.59;;;14.05;54.24
46007;BME280;31738;50.188;8.524;2023-05-27T05:11:19;99821.91;;;14.09;53.75
46007;BME280;31738;50.188;8.524;2023-05-27T05:13:46;99829.19;;;14.13;53.58
46007;BME280;31738;50.188;8.524;2023-05-27T05:16:11;99825.69;;;14.18;53.17
46007;BME280;31738;50.188;8.524;2023-05-27T05:18:37;99828.63;;;14.21;53.67
46007;BME280;31738;50.188;8.524;2023-05-27T05:21:03;99828.63;;;14.21;53.64
46007;BME280;31738;50.188;8.524;2023-05-27T05:23:35;99811.38;;;14.27;53.35
46007;BME280;31738;50.188;8.524;2023-05-27T05:26:00;99817.88;;;14.31;53.46
46007;BME280;31738;50.188;8.524;2023-05-27T05:28:33;99807.88;;;14.37;54.06
46007;BME280;31738;50.188;8.524;2023-05-27T05:31:00;99812.47;;;14.41;53.90
46007;BME280;31738;50.188;8.524;2023-05-27T05:33:25;99812.47;;;14.41;53.83
46007;BME280;31738;50.188;8.524;2023-05-27T05:35:51;99823.81;;;14.48;53.29
46007;BME280;31738;50.188;8.524;2023-05-27T05:38:23;99825.97;;;14.51;53.12
46007;BME280;31738;50.188;8.524;2023-05-27T05:40:48;99824.31;;;14.55;53.09
46007;BME280;31738;50.188;8.524;2023-05-27T05:43:17;99822.69;;;14.59;52.89
46007;BME280;31738;50.188;8.524;2023-05-27T05:45:43;99827.31;;;14.64;53.08
46007;BME280;31738;50.188;8.524;2023-05-27T05:48:09;99826.47;;;14.68;53.38
46007;BME280;31738;50.188;8.524;2023-05-27T05:50:37;99823.75;;;14.73;54.14
46007;BME280;31738;50.188;8.524;2023-05-27T05:53:03;99834.00;;;14.76;53.56
46007;BME280;31738;50.188;8.524;2023-05-27T05:55:28;99836.16;;;14.79;53.44
46007;BME280;31738;50.188;8.524;2023-05-27T05:57:55;99840.75;;;14.84;53.22
46007;BME280;31738;50.188;8.524;2023-05-27T06:00:21;99834.81;;;14.87;53.92
46007;BME280;31738;50.188;8.524;2023-05-27T06:02:50;99839.94;;;14.88;54.20
46007;BME280;31738;50.188;8.524;2023-05-27T06:05:35;99838.03;;;14.94;53.62
46007;BME280;31738;50.188;8.524;2023-05-27T06:08:01;99833.16;;;14.96;52.76
46007;BME280;31738;50.188;8.524;2023-05-27T06:10:26;99837.75;;;15.00;52.61
46007;BME280;31738;50.188;8.524;2023-05-27T06:12:52;99835.56;;;15.02;52.75
46007;BME280;31738;50.188;8.524;2023-05-27T06:15:18;99840.13;;;15.07;52.66
46007;BME280;31738;50.188;8.524;2023-05-27T06:17:44;99838.25;;;15.12;52.82
46007;BME280;31738;50.188;8.524;2023-05-27T06:20:09;99836.09;;;15.14;52.71
46007;BME280;31738;50.188;8.524;2023-05-27T06:22:35;99838.19;;;15.22;53.42
46007;BME280;31738;50.188;8.524;2023-05-27T06:25:27;99842.50;;;15.28;53.28
46007;BME280;31738;50.188;8.524;2023-05-27T06:27:58;99836.78;;;15.35;53.50
46007;BME280;31738;50.188;8.524;2023-05-27T06:30:24;99844.38;;;15.43;52.88
46007;BME280;31738;50.188;8.524;2023-05-27T06:32:51;99842.16;;;15.50;53.13
46007;BME280;31738;50.188;8.524;2023-05-27T06:35:18;99843.75;;;15.56;53.56
46007;BME280;31738;50.188;8.524;2023-05-27T06:37:44;99834.50;;;15.67;54.11
46007;BME280;31738;50.188;8.524;2023-05-27T06:40:10;99829.84;;;15.78;53.44
46007;BME280;31738;50.188;8.524;2023-05-27T06:42:36;99835.19;;;15.88;53.47
46007;BME280;31738;50.188;8.524;2023-05-27T06:45:14;99833.22;;;15.98;52.99
46007;BME280;31738;50.188;8.524;2023-05-27T06:47:40;99837.47;;;16.09;52.41
46007;BME280;31738;50.188;8.524;2023-05-27T06:50:06;99818.44;;;16.19;52.97
46007;BME280;31738;50.188;8.524;2023-05-27T06:52:32;99829.50;;;16.28;53.05
46007;BME280;31738;50.188;8.524;2023-05-27T06:55:17;99828.56;;;16.37;52.41
46007;BME280;31738;50.188;8.524;2023-05-27T06:58:01;99814.19;;;16.42;52.43
46007;BME280;31738;50.188;8.524;2023-05-27T07:00:43;99825.53;;;16.49;51.91
46007;BME280;31738;50.188;8.524;2023-05-27T07:03:30;99816.81;;;16.57;52.58
46007;BME280;31738;50.188;8.524;2023-05-27T07:05:56;99822.34;;;16.70;52.40
46007;BME280;31738;50.188;8.524;2023-05-27T07:08:23;99824.59;;;16.87;52.00
46007;BME280;31738;50.188;8.524;2023-05-27T07:11:00;99820.47;;;16.94;51.40
46007;BME280;31738;50.188;8.524;2023-05-27T07:13:26;99814.94;;;17.04;52.19
46007;BME280;31738;50.188;8.524;2023-05-27T07:15:53;99829.75;;;17.12;51.72
46007;BME280;31738;50.188;8.524;2023-05-27T07:18:18;99825.88;;;17.18;51.00
46007;BME280;31738;50.188;8.524;2023-05-27T07:20:44;99821.44;;;17.27;51.51
46007;BME280;31738;50.188;8.524;2023-05-27T07:23:12;99819.69;;;17.36;50.86
46007;BME280;31738;50.188;8.524;2023-05-27T07:25:39;99837.47;;;17.47;49.71
46007;BME280;31738;50.188;8.524;2023-05-27T07:28:05;99821.88;;;17.58;50.65
46007;BME280;31738;50.188;8.524;2023-05-27T07:30:32;99825.78;;;17.70;51.46
46007;BME280;31738;50.188;8.524;2023-05-27T07:33:00;99822.91;;;17.80;50.53
46007;BME280;31738;50.188;8.524;2023-05-27T07:35:27;99834.72;;;17.89;49.72
46007;BME280;31738;50.188;8.524;2023-05-27T07:37:52;99835.16;;;17.96;49.56
46007;BME280;31738;50.188;8.524;2023-05-27T07:40:18;99832.94;;;17.98;48.28
46007;BME280;31738;50.188;8.524;2023-05-27T07:42:43;99833.41;;;18.05;49.27
46007;BME280;31738;50.188;8.524;2023-05-27T07:45:10;99819.72;;;18.10;49.16
46007;BME280;31738;50.188;8.524;2023-05-27T07:47:36;99825.59;;;18.17;49.67
46007;BME280;31738;50.188;8.524;2023-05-27T07:50:01;99835.50;;;18.27;48.13
46007;BME280;31738;50.188;8.524;2023-05-27T07:52:48;99828.66;;;18.29;48.29
46007;BME280;31738;50.188;8.524;2023-05-27T07:55:23;99827.16;;;18.37;48.51
46007;BME280;31738;50.188;8.524;2023-05-27T07:57:48;99832.56;;;18.42;47.90
46007;BME280;31738;50.188;8.524;2023-05-27T08:00:14;99826.84;;;18.57;47.84
46007;BME280;31738;50.188;8.524;2023-05-27T08:02:51;99829.09;;;18.68;47.17
46007;BME280;31738;50.188;8.524;2023-05-27T08:05:19;99843.09;;;18.76;46.84
46007;BME280;31738;50.188;8.524;2023-05-27T08:08:07;99829.44;;;18.81;47.69
46007;BME280;31738;50.188;8.524;2023-05-27T08:10:52;99837.06;;;18.92;47.81
46007;BME280;31738;50.188;8.524;2023-05-27T08:13:49;99829.66;;;18.98;47.53
46007;BME280;31738;50.188;8.524;2023-05-27T08:16:36;99827.84;;;19.07;47.68
46007;BME280;31738;50.188;8.524;2023-05-27T08:19:25;99822.19;;;19.17;47.97
46007;BME280;31738;50.188;8.524;2023-05-27T08:21:56;99816.84;;;19.25;48.01
46007;BME280;31738;50.188;8.524;2023-05-27T08:24:40;99825.00;;;19.25;46.78
46007;BME280;31738;50.188;8.524;2023-05-27T08:27:49;99815.75;;;19.40;47.11
46007;BME280;31738;50.188;8.524;2023-05-27T08:30:21;99806.06;;;19.20;47.80
46007;BME280;31738;50.188;8.524;2023-05-27T08:32:52;99803.88;;;19.36;48.13
46007;BME280;31738;50.188;8.524;2023-05-27T08:35:17;99810.88;;;19.50;47.08
46007;BME280;31738;50.188;8.524;2023-05-27T08:37:44;99812.31;;;19.48;46.72
46007;BME280;31738;50.188;8.524;2023-05-27T08:40:13;99800.19;;;19.54;47.74
46007;BME280;31738;50.188;8.524;2023-05-27T08:42:43;99808.94;;;19.64;47.23
46007;BME280;31738;50.188;8.524;2023-05-27T08:45:11;99809.44;;;19.66;46.41
46007;BME280;31738;50.188;8.524;2023-05-27T08:47:38;99812.66;;;19.68;45.95
46007;BME280;31738;50.188;8.524;2023-05-27T08:50:07;99812.13;;;19.80;45.45
46007;BME280;31738;50.188;8.524;2023-05-27T08:52:33;99807.56;;;19.89;46.74
46007;BME280;31738;50.188;8.524;2023-05-27T08:55:00;99817.22;;;19.95;45.89
46007;BME280;31738;50.188;8.524;2023-05-27T08:57:28;99802.38;;;20.01;47.70
46007;BME280;31738;50.188;8.524;2023-05-27T08:59:55;99802.66;;;20.13;48.15
46007;BME280;31738;50.188;8.524;2023-05-27T09:02:21;99793.94;;;20.24;48.05
46007;BME280;31738;50.188;8.524;2023-05-27T09:04:48;99798.69;;;20.41;47.25
46007;BME280;31738;50.188;8.524;2023-05-27T09:07:14;99787.19;;;20.53;46.62
46007;BME280;31738;50.188;8.524;2023-05-27T09:09:40;99782.63;;;20.62;46.59
46007;BME280;31738;50.188;8.524;2023-05-27T09:12:06;99778.94;;;20.66;46.84
46007;BME280;31738;50.188;8.524;2023-05-27T09:14:34;99776.25;;;20.75;47.31
46007;BME280;31738;50.188;8.524;2023-05-27T09:17:07;99779.34;;;20.90;46.10
46007;BME280;31738;50.188;8.524;2023-05-27T09:19:33;99776.53;;;20.95;45.30
46007;BME280;31738;50.188;8.524;2023-05-27T09:21:58;99774.78;;;20.99;46.21
46007;BME280;31738;50.188;8.524;2023-05-27T09:24:24;99784.28;;;21.10;45.35
46007;BME280;31738;50.188;8.524;2023-05-27T09:26:50;99772.09;;;21.16;45.29
46007;BME280;31738;50.188;8.524;2023-05-27T09:29:18;99776.13;;;21.27;46.04
46007;BME280;31738;50.188;8.524;2023-05-27T09:31:44;99775.50;;;21.39;45.39
46007;BME280;31738;50.188;8.524;2023-05-27T09:34:16;99784.50;;;21.48;44.33
46007;BME280;31738;50.188;8.524;2023-05-27T09:36:43;99784.19;;;21.49;44.53
46007;BME280;31738;50.188;8.524;2023-05-27T09:39:10;99792.09;;;21.59;43.86
46007;BME280;31738;50.188;8.524;2023-05-27T09:41:36;99786.47;;;21.64;43.54
46007;BME280;31738;50.188;8.524;2023-05-27T09:44:04;99791.94;;;21.73;42.67
46007;BME280;31738;50.188;8.524;2023-05-27T09:46:32;99781.22;;;21.76;45.22
46007;BME280;31738;50.188;8.524;2023-05-27T09:48:57;99782.47;;;21.87;46.59
46007;BME280;31738;50.188;8.524;2023-05-27T09:51:24;99780.88;;;22.04;45.07
46007;BME280;31738;50.188;8.524;2023-05-27T09:53:53;99786.66;;;22.19;44.24
46007;BME280;31738;50.188;8.524;2023-05-27T09:56:26;99764.25;;;22.34;45.31
46007;BME280;31738;50.188;8.524;2023-05-27T09:58:55;99793.06;;;22.32;42.59
46007;BME280;31738;50.188;8.524;2023-05-27T10:01:28;99773.09;;;22.48;44.08
46007;BME280;31738;50.188;8.524;2023-05-27T10:03:55;99778.72;;;22.60;43.52
46007;BME280;31738;50.188;8.524;2023-05-27T10:06:22;99768.22;;;22.71;43.64
46007;BME280;31738;50.188;8.524;2023-05-27T10:08:55;99773.34;;;22.81;42.72
46007;BME280;31738;50.188;8.524;2023-05-27T10:11:25;99781.22;;;22.82;41.12
46007;BME280;31738;50.188;8.524;2023-05-27T10:13:53;99776.03;;;22.89;43.23
46007;BME280;31738;50.188;8.524;2023-05-27T10:16:20;99775.13;;;23.06;42.79
46007;BME280;31738;50.188;8.524;2023-05-27T10:18:47;99756.53;;;23.28;44.09
46007;BME280;31738;50.188;8.524;2023-05-27T10:21:21;99763.59;;;23.50;43.77
46007;BME280;31738;50.188;8.524;2023-05-27T10:24:02;99769.53;;;23.61;42.08
46007;BME280;31738;50.188;8.524;2023-05-27T10:26:36;99756.66;;;23.73;43.16
46007;BME280;31738;50.188;8.524;2023-05-27T10:29:13;99769.84;;;23.59;43.14
46007;BME280;31738;50.188;8.524;2023-05-27T10:31:51;99758.13;;;23.50;42.61
46007;BME280;31738;50.188;8.524;2023-05-27T10:34:17;99774.03;;;23.36;41.50
46007;BME280;31738;50.188;8.524;2023-05-27T10:36:46;99782.41;;;23.60;41.27
46007;BME280;31738;50.188;8.524;2023-05-27T10:39:14;99787.69;;;23.65;39.62
46007;BME280;31738;50.188;8.524;2023-05-27T10:41:49;99784.28;;;23.68;40.18
46007;BME280;31738;50.188;8.524;2023-05-27T10:44:25;99789.38;;;23.78;40.21
46007;BME280;31738;50.188;8.524;2023-05-27T10:46:59;99784.59;;;23.87;40.99
46007;BME280;31738;50.188;8.524;2023-05-27T10:49:25;99790.56;;;23.89;40.21
46007;BME280;31738;50.188;8.524;2023-05-27T10:51:53;99786.09;;;24.05;40.29
46007;BME280;31738;50.188;8.524;2023-05-27T10:54:19;99788.78;;;24.14;40.70
46007;BME280;31738;50.188;8.524;2023-05-27T10:56:51;99794.50;;;24.21;38.99
46007;BME280;31738;50.188;8.524;2023-05-27T10:59:20;99781.25;;;24.23;39.24
46007;BME280;31738;50.188;8.524;2023-05-27T11:01:51;99788.00;;;24.25;38.72
46007;BME280;31738;50.188;8.524;2023-05-27T11:04:19;99781.09;;;24.40;38.19
46007;BME280;31738;50.188;8.524;2023-05-27T11:07:00;99787.66;;;24.59;38.33
46007;BME280;31738;50.188;8.524;2023-05-27T11:09:25;99784.78;;;24.56;38.56
46007;BME280;31738;50.188;8.524;2023-05-27T11:11:52;99794.56;;;24.65;37.21
46007;BME280;31738;50.188;8.524;2023-05-27T11:14:17;99787.69;;;24.71;38.44
46007;BME280;31738;50.188;8.524;2023-05-27T11:16:49;99794.16;;;24.87;38.29
46007;BME280;31738;50.188;8.524;2023-05-27T11:19:26;99788.88;;;25.06;37.77
46007;BME280;31738;50.188;8.524;2023-05-27T11:21:51;99793.00;;;25.12;36.69
46007;BME280;31738;50.188;8.524;2023-05-27T11:24:18;99785.22;;;25.27;38.58
46007;BME280;31738;50.188;8.524;2023-05-27T11:26:47;99775.84;;;25.40;38.39
46007;BME280;31738;50.188;8.524;2023-05-27T11:29:14;99776.19;;;25.38;38.19
46007;BME280;31738;50.188;8.524;2023-05-27T11:31:40;99788.56;;;25.20;36.90
46007;BME280;31738;50.188;8.524;2023-05-27T11:34:16;99778.69;;;25.31;37.61
46007;BME280;31738;50.188;8.524;2023-05-27T11:36:45;99767.38;;;25.45;37.29
46007;BME280;31738;50.188;8.524;2023-05-27T11:39:14;99771.13;;;25.64;37.17
46007;BME280;31738;50.188;8.524;2023-05-27T11:41:52;99774.41;;;25.70;36.46
46007;BME280;31738;50.188;8.524;2023-05-27T11:44:19;99774.22;;;25.63;35.89
46007;BME280;31738;50.188;8.524;2023-05-27T11:46:46;99771.50;;;25.51;36.19
46007;BME280;31738;50.188;8.524;2023-05-27T11:49:16;99772.63;;;25.50;36.67
46007;BME280;31738;50.188;8.524;2023-05-27T11:51:44;99763.31;;;25.66;37.70
46007;BME280;31738;50.188;8.524;2023-05-27T11:54:24;99751.69;;;25.85;38.05
46007;BME280;31738;50.188;8.524;2023-05-27T11:56:51;99742.25;;;25.98;38.45
46007;BME280;31738;50.188;8.524;2023-05-27T11:59:17;99736.25;;;26.08;37.62
46007;BME280;31738;50.188;8.524;2023-05-27T12:01:43;99738.75;;;26.13;37.55
46007;BME280;31738;50.188;8.524;2023-05-27T12:04:09;99729.09;;;26.19;37.55
46007;BME280;31738;50.188;8.524;2023-05-27T12:06:35;99730.25;;;26.18;36.98
46007;BME280;31738;50.188;8.524;2023-05-27T12:09:02;99732.78;;;26.23;36.66
46007;BME280;31738;50.188;8.524;2023-05-27T12:11:28;99742.25;;;26.25;35.67
46007;BME280;31738;50.188;8.524;2023-05-27T12:13:53;99726.28;;;26.31;37.28
46007;BME280;31738;50.188;8.524;2023-05-27T12:16:19;99721.84;;;26.42;37.16
46007;BME280;31738;50.188;8.524;2023-05-27T12:18:44;99728.91;;;26.55;36.73
46007;BME280;31738;50.188;8.524;2023-05-27T12:21:11;99732.16;;;26.45;35.26
46007;BME280;31738;50.188;8.524;2023-05-27T12:23:36;99744.66;;;26.27;34.96
46007;BME280;31738;50.188;8.524;2023-05-27T12:26:02;99745.59;;;26.19;35.31
46007;BME280;31738;50.188;8.524;2023-05-27T12:28:27;99737.94;;;26.12;36.21
46007;BME280;31738;50.188;8.524;2023-05-27T12:30:53;99731.59;;;26.24;36.55
46007;BME280;31738;50.188;8.524;2023-05-27T12:33:18;99720.41;;;26.32;36.45
46007;BME280;31738;50.188;8.524;2023-05-27T12:35:44;99718.66;;;26.40;35.62
46007;BME280;31738;50.188;8.524;2023-05-27T12:38:09;99724.16;;;26.40;36.14
46007;BME280;31738;50.188;8.524;2023-05-27T12:40:35;99726.47;;;26.38;34.52
46007;BME280;31738;50.188;8.524;2023-05-27T12:43:01;99718.03;;;26.31;35.75
46007;BME280;31738;50.188;8.524;2023-05-27T12:45:28;99723.34;;;26.24;36.27
46007;BME280;31738;50.188;8.524;2023-05-27T12:47:54;99706.63;;;26.17;36.50
46007;BME280;31738;50.188;8.524;2023-05-27T12:50:20;99692.63;;;26.22;35.98
46007;BME280;31738;50.188;8.524;2023-05-27T12:52:46;99702.41;;;26.35;35.59
46007;BME280;31738;50.188;8.524;2023-05-27T12:55:15;99716.34;;;26.26;33.94
46007;BME280;31738;50.188;8.524;2023-05-27T12:57:45;99709.38;;;26.01;33.03
46007;BME280;31738;50.188;8.524;2023-05-27T13:00:11;99698.78;;;25.76;35.23
46007;BME280;31738;50.188;8.524;2023-05-27T13:02:38;99715.44;;;25.67;34.48
46007;BME280;31738;50.188;8.524;2023-05-27T13:05:05;99705.03;;;25.61;34.25
46007;BME280;31738;50.188;8.524;2023-05-27T13:07:33;99697.19;;;25.75;35.47
46007;BME280;31738;50.188;8.524;2023-05-27T13:10:00;99686.00;;;25.95;35.51